Time,TemperatureF,DewpointF,PressureIn,WindDirection,WindDirectionDegrees,WindSpeedMPH,WindSpeedGustMPH,Humidity,HourlyPrecipIn,Conditions,Clouds,dailyrainin,SoftwareType,DateUTC
2013-11-23 00:01:00,59.7,56.1,30.21,South,180,3.8,3.8,88,0.00,,,0.00,meteobridge,2013-11-23 06:01:00,
2013-11-23 00:07:00,59.7,56.1,30.21,SE,135,2.2,3.1,88,0.00,,,0.00,meteobridge,2013-11-23 06:07:00,
2013-11-23 00:14:00,59.5,56.3,30.20,SE,135,4.5,4.5,89,0.00,,,0.00,meteobridge,2013-11-23 06:14:00,
2013-11-23 00:20:00,59.4,55.8,30.20,SE,135,7.6,7.6,88,0.00,,,0.00,meteobridge,2013-11-23 06:20:00,
2013-11-23 00:27:00,59.4,55.8,30.20,SE,135,4.5,5.4,88,0.00,,,0.00,meteobridge,2013-11-23 06:27:00,
2013-11-23 00:33:00,59.5,55.9,30.20,South,180,1.6,2.2,88,0.00,,,0.00,meteobridge,2013-11-23 06:33:00,
2013-11-23 00:39:00,59.4,56.1,30.19,SE,135,3.8,4.5,89,0.00,,,0.00,meteobridge,2013-11-23 06:39:00,
2013-11-23 00:46:00,59.5,56.7,30.19,South,180,5.4,5.4,90,0.00,,,0.00,meteobridge,2013-11-23 06:46:00,
2013-11-23 00:52:00,59.4,56.1,30.20,SE,135,3.8,4.5,89,0.00,,,0.00,meteobridge,2013-11-23 06:52:00,
2013-11-23 00:58:00,59.2,56.3,30.19,SE,135,4.5,7.6,90,0.00,,,0.00,meteobridge,2013-11-23 06:58:00,
2013-11-23 01:05:00,59.0,56.1,30.19,SE,135,4.5,4.5,90,0.00,,,0.00,meteobridge,2013-11-23 07:05:00,
2013-11-23 01:11:00,58.5,55.8,30.19,SE,135,7.6,8.3,91,0.00,,,0.00,meteobridge,2013-11-23 07:11:00,
2013-11-23 01:17:00,59.0,56.1,30.18,South,180,3.1,5.4,90,0.00,,,0.00,meteobridge,2013-11-23 07:17:00,
2013-11-23 01:24:00,58.5,55.8,30.18,South,180,5.4,5.4,91,0.00,,,0.00,meteobridge,2013-11-23 07:24:00,
2013-11-23 01:30:00,58.6,55.9,30.18,SE,135,4.5,6.0,91,0.00,,,0.00,meteobridge,2013-11-23 07:30:00,
2013-11-23 01:36:00,58.5,55.6,30.18,South,180,5.4,9.2,90,0.00,,,0.00,meteobridge,2013-11-23 07:36:00,
2013-11-23 01:43:00,59.0,55.8,30.18,SE,135,4.5,5.4,89,0.00,,,0.00,meteobridge,2013-11-23 07:43:00,
2013-11-23 01:49:00,58.6,55.8,30.18,SE,135,5.4,7.6,90,0.00,,,0.00,meteobridge,2013-11-23 07:49:00,
2013-11-23 01:55:00,58.5,55.2,30.18,South,180,6.0,8.3,89,0.00,,,0.00,meteobridge,2013-11-23 07:55:00,
2013-11-23 02:02:00,59.0,55.4,30.18,East,90,2.2,6.0,88,0.00,,,0.00,meteobridge,2013-11-23 08:02:00,
2013-11-23 02:08:00,58.3,55.0,30.18,South,180,3.1,3.8,89,0.00,,,0.00,meteobridge,2013-11-23 08:08:00,
2013-11-23 02:14:00,58.3,55.0,30.17,SE,135,3.1,5.4,89,0.00,,,0.00,meteobridge,2013-11-23 08:14:00,
2013-11-23 02:21:00,58.3,55.0,30.18,SE,135,3.1,3.1,89,0.00,,,0.00,meteobridge,2013-11-23 08:21:00,
2013-11-23 02:27:00,58.1,54.9,30.18,SE,135,6.9,6.9,89,0.00,,,0.00,meteobridge,2013-11-23 08:27:00,
2013-11-23 02:33:00,58.3,55.0,30.17,SE,135,6.9,6.9,89,0.00,,,0.00,meteobridge,2013-11-23 08:33:00,
2013-11-23 02:40:00,58.3,55.0,30.18,SE,135,6.0,6.9,89,0.00,,,0.00,meteobridge,2013-11-23 08:40:00,
2013-11-23 02:46:00,58.3,55.0,30.18,East,90,4.5,5.4,89,0.00,,,0.00,meteobridge,2013-11-23 08:46:00,
2013-11-23 02:52:00,59.0,55.4,30.17,South,180,3.1,6.0,88,0.00,,,0.00,meteobridge,2013-11-23 08:52:00,
2013-11-23 02:59:00,59.4,55.4,30.17,SE,135,7.6,7.6,87,0.00,,,0.00,meteobridge,2013-11-23 08:59:00,
2013-11-23 03:05:00,59.2,55.0,30.17,SE,135,6.0,6.0,86,0.00,,,0.00,meteobridge,2013-11-23 09:05:00,
2013-11-23 03:11:00,59.4,55.2,30.17,SE,135,6.0,9.2,86,0.00,,,0.00,meteobridge,2013-11-23 09:11:00,
2013-11-23 03:18:00,59.4,54.9,30.18,SE,135,3.8,6.0,85,0.00,,,0.00,meteobridge,2013-11-23 09:18:00,
2013-11-23 03:24:00,59.0,54.5,30.18,South,180,3.1,3.1,85,0.00,,,0.00,meteobridge,2013-11-23 09:24:00,
2013-11-23 03:31:00,59.4,55.2,30.18,SE,135,3.8,6.0,86,0.00,,,0.00,meteobridge,2013-11-23 09:31:00,
2013-11-23 03:37:00,59.2,55.0,30.17,SE,135,3.1,5.4,86,0.00,,,0.00,meteobridge,2013-11-23 09:37:00,
2013-11-23 03:43:00,59.2,55.0,30.18,SE,135,6.0,9.8,86,0.00,,,0.00,meteobridge,2013-11-23 09:43:00,
2013-11-23 03:50:00,59.0,54.9,30.18,South,180,0.0,3.8,86,0.00,,,0.00,meteobridge,2013-11-23 09:50:00,
2013-11-23 03:56:00,58.3,54.7,30.17,East,90,5.4,6.9,88,0.00,,,0.00,meteobridge,2013-11-23 09:56:00,
2013-11-23 04:02:00,59.4,55.4,30.17,SE,135,9.2,9.2,87,0.00,,,0.00,meteobridge,2013-11-23 10:02:00,
2013-11-23 04:09:00,61.0,56.5,30.17,South,180,3.1,6.0,85,0.00,,,0.00,meteobridge,2013-11-23 10:09:00,
2013-11-23 04:15:00,59.2,54.3,30.18,SE,135,9.2,9.2,84,0.00,,,0.00,meteobridge,2013-11-23 10:15:00,
2013-11-23 04:21:00,59.0,54.1,30.18,SE,135,3.1,5.4,84,0.00,,,0.00,meteobridge,2013-11-23 10:21:00,
2013-11-23 04:28:00,58.3,54.1,30.18,East,90,3.8,4.5,86,0.00,,,0.00,meteobridge,2013-11-23 10:28:00,
2013-11-23 04:34:00,58.1,54.3,30.18,SE,135,4.5,6.0,87,0.00,,,0.00,meteobridge,2013-11-23 10:34:00,
2013-11-23 04:40:00,59.0,54.9,30.18,South,180,5.4,7.6,86,0.00,,,0.00,meteobridge,2013-11-23 10:40:00,
2013-11-23 04:47:00,57.9,54.1,30.17,SE,135,4.5,8.3,87,0.00,,,0.00,meteobridge,2013-11-23 10:47:00,
2013-11-23 04:53:00,58.3,54.1,30.18,SE,135,5.4,6.9,86,0.00,,,0.00,meteobridge,2013-11-23 10:53:00,
2013-11-23 04:59:00,59.2,54.3,30.18,SE,135,6.0,7.6,84,0.00,,,0.00,meteobridge,2013-11-23 10:59:00,
2013-11-23 05:06:00,58.6,54.1,30.18,South,180,3.8,3.8,85,0.00,,,0.00,meteobridge,2013-11-23 11:06:00,
2013-11-23 05:12:00,58.3,53.8,30.18,SE,135,4.5,4.5,85,0.00,,,0.00,meteobridge,2013-11-23 11:12:00,
2013-11-23 05:18:00,60.1,55.6,30.18,South,180,5.4,6.0,85,0.00,,,0.00,meteobridge,2013-11-23 11:18:00,
2013-11-23 05:25:00,59.9,55.0,30.18,South,180,4.5,5.4,84,0.00,,,0.00,meteobridge,2013-11-23 11:25:00,
2013-11-23 05:31:00,61.7,56.1,30.18,South,180,4.5,8.3,82,0.00,,,0.00,meteobridge,2013-11-23 11:31:00,
2013-11-23 05:37:00,61.9,56.3,30.18,SW,225,11.4,11.4,82,0.00,,,0.00,meteobridge,2013-11-23 11:37:00,
2013-11-23 05:44:00,62.8,56.1,30.18,South,180,3.8,10.7,79,0.00,,,0.00,meteobridge,2013-11-23 11:44:00,
2013-11-23 05:50:00,63.0,56.3,30.19,South,180,9.2,11.4,79,0.00,,,0.00,meteobridge,2013-11-23 11:50:00,
2013-11-23 05:56:00,61.5,54.7,30.19,SE,135,4.5,6.0,78,0.00,,,0.00,meteobridge,2013-11-23 11:56:00,
2013-11-23 06:03:00,60.3,54.1,30.19,South,180,4.5,5.4,80,0.00,,,0.00,meteobridge,2013-11-23 12:03:00,
2013-11-23 06:09:00,59.5,53.8,30.19,East,90,2.2,2.2,81,0.00,,,0.00,meteobridge,2013-11-23 12:09:00,
2013-11-23 06:15:00,59.5,54.3,30.19,SE,135,3.8,3.8,83,0.00,,,0.00,meteobridge,2013-11-23 12:15:00,
2013-11-23 06:22:00,59.9,54.7,30.19,East,90,5.4,9.8,83,0.00,,,0.00,meteobridge,2013-11-23 12:22:00,
2013-11-23 06:28:00,62.8,56.8,30.20,SE,135,6.9,6.9,81,0.00,,,0.00,meteobridge,2013-11-23 12:28:00,
2013-11-23 06:34:00,64.8,56.7,30.20,South,180,1.6,4.5,75,0.00,,,0.00,meteobridge,2013-11-23 12:34:00,
2013-11-23 06:41:00,67.3,57.6,30.20,SW,225,0.0,0.0,71,0.00,,,0.00,meteobridge,2013-11-23 12:41:00,
2013-11-23 06:47:00,65.1,55.9,30.21,North,0,3.8,7.6,72,0.00,,,0.00,meteobridge,2013-11-23 12:47:00,
2013-11-23 06:53:00,66.4,56.3,30.21,North,0,3.8,4.5,70,0.00,,,0.00,meteobridge,2013-11-23 12:53:00,
2013-11-23 07:00:00,67.8,56.8,30.21,North,0,0.0,2.2,68,0.00,,,0.00,meteobridge,2013-11-23 13:00:00,
2013-11-23 07:06:00,67.6,56.3,30.22,West,270,2.2,2.2,67,0.00,,,0.00,meteobridge,2013-11-23 13:06:00,
2013-11-23 07:13:00,68.5,57.2,30.22,NE,45,1.6,2.2,67,0.00,,,0.00,meteobridge,2013-11-23 13:13:00,
2013-11-23 07:19:00,68.7,57.7,30.22,East,90,3.1,3.8,68,0.00,,,0.00,meteobridge,2013-11-23 13:19:00,
2013-11-23 07:25:00,68.9,57.9,30.22,SE,135,3.1,4.5,68,0.00,,,0.00,meteobridge,2013-11-23 13:25:00,
2013-11-23 07:32:00,69.4,58.5,30.22,North,0,2.2,3.8,68,0.00,,,0.00,meteobridge,2013-11-23 13:32:00,
2013-11-23 07:38:00,68.2,58.5,30.22,SE,135,4.5,6.9,71,0.00,,,0.00,meteobridge,2013-11-23 13:38:00,
2013-11-23 07:44:00,70.0,58.1,30.23,East,90,5.4,5.4,66,0.00,,,0.00,meteobridge,2013-11-23 13:44:00,
2013-11-23 07:51:00,70.3,58.1,30.23,SE,135,6.0,6.0,65,0.00,,,0.00,meteobridge,2013-11-23 13:51:00,
2013-11-23 07:59:00,70.0,58.5,30.22,North,0,6.9,6.9,67,0.00,,,0.00,meteobridge,2013-11-23 13:59:00,
2013-11-23 08:08:00,70.7,58.3,30.23,North,0,4.5,6.0,65,0.00,,,0.00,meteobridge,2013-11-23 14:08:00,
2013-11-23 08:14:00,70.2,58.3,30.23,East,90,5.4,6.0,66,0.00,,,0.00,meteobridge,2013-11-23 14:14:00,
2013-11-23 08:22:00,71.8,58.1,30.23,NW,315,3.8,3.8,62,0.00,,,0.00,meteobridge,2013-11-23 14:22:00,
2013-11-23 08:29:00,71.6,57.4,30.23,SE,135,0.0,3.1,61,0.00,,,0.00,meteobridge,2013-11-23 14:29:00,
2013-11-23 08:35:00,69.4,57.6,30.23,North,0,5.4,6.0,66,0.00,,,0.00,meteobridge,2013-11-23 14:35:00,
2013-11-23 08:41:00,70.2,58.3,30.23,East,90,6.9,6.9,66,0.00,,,0.00,meteobridge,2013-11-23 14:41:00,
2013-11-23 08:48:00,71.4,59.0,30.23,SE,135,3.8,4.5,65,0.00,,,0.00,meteobridge,2013-11-23 14:48:00,
2013-11-23 08:54:00,70.2,58.3,30.23,West,270,0.7,2.2,66,0.00,,,0.00,meteobridge,2013-11-23 14:54:00,
2013-11-23 09:00:00,70.2,55.6,30.23,North,0,9.8,9.8,60,0.00,,,0.00,meteobridge,2013-11-23 15:00:00,
2013-11-23 09:07:00,71.6,59.7,30.23,East,90,3.8,4.5,66,0.00,,,0.00,meteobridge,2013-11-23 15:07:00,
2013-11-23 09:13:00,72.0,56.3,30.23,NW,315,3.8,11.4,58,0.00,,,0.00,meteobridge,2013-11-23 15:13:00,
2013-11-23 09:19:00,73.9,53.6,30.23,SW,225,12.1,12.1,49,0.00,,,0.00,meteobridge,2013-11-23 15:19:00,
2013-11-23 09:26:00,74.7,58.5,30.22,SE,135,3.8,9.2,57,0.00,,,0.00,meteobridge,2013-11-23 15:26:00,
2013-11-23 09:32:00,75.2,57.9,30.23,North,0,3.8,6.9,55,0.00,,,0.00,meteobridge,2013-11-23 15:32:00,
2013-11-23 09:38:00,77.7,58.1,30.23,SW,225,10.7,10.7,51,0.00,,,0.00,meteobridge,2013-11-23 15:38:00,
2013-11-23 09:45:00,75.0,54.5,30.22,NW,315,6.9,8.3,49,0.00,,,0.00,meteobridge,2013-11-23 15:45:00,
2013-11-23 09:51:00,74.1,52.5,30.22,West,270,8.3,13.6,47,0.00,,,0.00,meteobridge,2013-11-23 15:51:00,
2013-11-23 09:57:00,76.1,55.6,30.23,West,270,6.0,6.9,49,0.00,,,0.00,meteobridge,2013-11-23 15:57:00,
2013-11-23 10:04:00,75.2,54.7,30.22,West,270,10.7,13.6,49,0.00,,,0.00,meteobridge,2013-11-23 16:04:00,
2013-11-23 10:10:00,77.9,56.7,30.22,South,180,13.0,13.0,48,0.00,,,0.00,meteobridge,2013-11-23 16:10:00,
2013-11-23 10:17:00,74.1,55.9,30.22,South,180,9.2,9.8,53,0.00,,,0.00,meteobridge,2013-11-23 16:17:00,
2013-11-23 10:23:00,73.2,59.9,30.22,SE,135,3.1,7.6,63,0.00,,,0.00,meteobridge,2013-11-23 16:23:00,
2013-11-23 10:29:00,75.0,60.6,30.22,NE,45,2.2,3.8,61,0.00,,,0.00,meteobridge,2013-11-23 16:29:00,
2013-11-23 10:38:00,74.5,59.2,30.22,NE,45,3.8,3.8,59,0.00,,,0.00,meteobridge,2013-11-23 16:38:00,
2013-11-23 10:44:00,73.2,59.4,30.22,North,0,3.8,7.6,62,0.00,,,0.00,meteobridge,2013-11-23 16:44:00,
2013-11-23 10:50:00,72.9,59.9,30.21,South,180,7.6,7.6,64,0.00,,,0.00,meteobridge,2013-11-23 16:50:00,
2013-11-23 10:57:00,70.5,58.6,30.21,East,90,7.6,9.8,66,0.00,,,0.00,meteobridge,2013-11-23 16:57:00,
2013-11-23 11:03:00,70.5,59.9,30.21,East,90,9.2,9.2,69,0.00,,,0.00,meteobridge,2013-11-23 17:03:00,
2013-11-23 11:09:00,70.9,59.7,30.21,East,90,5.4,9.8,68,0.00,,,0.00,meteobridge,2013-11-23 17:09:00,
2013-11-23 11:16:00,71.1,60.4,30.20,East,90,7.6,7.6,69,0.00,,,0.00,meteobridge,2013-11-23 17:16:00,
2013-11-23 11:22:00,70.2,60.6,30.20,East,90,9.2,10.7,72,0.00,,,0.00,meteobridge,2013-11-23 17:22:00,
2013-11-23 11:28:00,69.8,60.4,30.20,East,90,11.4,13.6,72,0.00,,,0.00,meteobridge,2013-11-23 17:28:00,
2013-11-23 11:35:00,69.8,60.8,30.19,South,180,10.7,11.4,73,0.00,,,0.00,meteobridge,2013-11-23 17:35:00,
2013-11-23 11:41:00,69.1,60.4,30.19,SE,135,8.3,9.8,74,0.00,,,0.00,meteobridge,2013-11-23 17:41:00,
2013-11-23 11:47:00,69.6,61.0,30.19,SE,135,11.4,11.4,74,0.00,,,0.00,meteobridge,2013-11-23 17:47:00,
2013-11-23 11:54:00,69.1,60.8,30.19,SE,135,9.8,10.7,75,0.00,,,0.00,meteobridge,2013-11-23 17:54:00,
2013-11-23 12:02:00,68.9,61.3,30.19,East,90,0.0,3.8,77,0.00,,,0.00,meteobridge,2013-11-23 18:02:00,
2013-11-23 12:09:00,68.7,60.8,30.19,East,90,5.4,5.4,76,0.00,,,0.00,meteobridge,2013-11-23 18:09:00,
2013-11-23 12:15:00,68.2,61.0,30.19,North,0,0.7,3.1,78,0.00,,,0.00,meteobridge,2013-11-23 18:15:00,
2013-11-23 12:21:00,67.5,61.3,30.19,South,180,3.8,5.4,81,0.00,,,0.00,meteobridge,2013-11-23 18:21:00,
2013-11-23 12:28:00,66.9,61.5,30.19,East,90,3.8,4.5,83,0.00,,,0.00,meteobridge,2013-11-23 18:28:00,
2013-11-23 12:34:00,66.6,61.9,30.19,NE,45,1.6,11.4,85,0.00,,,0.00,meteobridge,2013-11-23 18:34:00,
2013-11-23 12:40:00,66.2,61.9,30.19,SE,135,11.4,11.4,86,0.00,,,0.00,meteobridge,2013-11-23 18:40:00,
2013-11-23 12:47:00,65.8,62.2,30.18,East,90,9.2,9.2,88,0.00,,,0.00,meteobridge,2013-11-23 18:47:00,
2013-11-23 12:53:00,65.7,62.1,30.18,East,90,7.6,15.2,88,0.00,,,0.00,meteobridge,2013-11-23 18:53:00,
2013-11-23 12:59:00,66.0,62.4,30.18,East,90,6.0,7.6,88,0.00,,,0.00,meteobridge,2013-11-23 18:59:00,
2013-11-23 13:06:00,66.9,62.6,30.17,NE,45,3.8,8.3,86,0.00,,,0.00,meteobridge,2013-11-23 19:06:00,
2013-11-23 13:14:00,67.6,62.6,30.17,SE,135,4.5,6.9,84,0.00,,,0.00,meteobridge,2013-11-23 19:14:00,
2013-11-23 13:20:00,68.2,62.1,30.16,East,90,2.2,4.5,81,0.00,,,0.00,meteobridge,2013-11-23 19:20:00,
2013-11-23 13:27:00,68.4,61.9,30.16,NE,45,3.8,6.9,80,0.00,,,0.00,meteobridge,2013-11-23 19:27:00,
2013-11-23 13:33:00,68.2,61.7,30.17,SE,135,3.8,3.8,80,0.00,,,0.00,meteobridge,2013-11-23 19:33:00,
2013-11-23 13:39:00,68.4,61.9,30.17,NW,315,3.8,3.8,80,0.00,,,0.00,meteobridge,2013-11-23 19:39:00,
2013-11-23 13:46:00,65.3,60.6,30.17,West,270,3.8,3.8,85,0.01,,,0.01,meteobridge,2013-11-23 19:46:00,
2013-11-23 13:52:00,64.9,60.6,30.17,North,0,6.0,6.0,86,0.05,,,0.05,meteobridge,2013-11-23 19:52:00,
2013-11-23 13:59:00,65.8,61.5,30.16,NE,45,3.1,3.8,86,0.07,,,0.07,meteobridge,2013-11-23 19:59:00,
2013-11-23 14:05:00,64.9,61.9,30.16,East,90,2.2,2.2,90,0.07,,,0.07,meteobridge,2013-11-23 20:05:00,
2013-11-23 14:11:00,65.1,62.4,30.16,West,270,0.0,2.2,91,0.07,,,0.07,meteobridge,2013-11-23 20:11:00,
2013-11-23 14:18:00,65.3,63.0,30.16,East,90,3.8,3.8,92,0.07,,,0.07,meteobridge,2013-11-23 20:18:00,
2013-11-23 14:24:00,65.8,63.7,30.16,East,90,3.1,3.1,93,0.07,,,0.07,meteobridge,2013-11-23 20:24:00,
2013-11-23 14:30:00,66.2,63.9,30.16,NE,45,0.0,0.0,92,0.07,,,0.07,meteobridge,2013-11-23 20:30:00,
2013-11-23 14:37:00,66.6,63.5,30.16,North,0,0.0,0.0,90,0.07,,,0.07,meteobridge,2013-11-23 20:37:00,
2013-11-23 14:43:00,67.1,64.0,30.16,SW,225,0.0,0.0,90,0.07,,,0.07,meteobridge,2013-11-23 20:43:00,
2013-11-23 14:49:00,66.4,63.3,30.16,West,270,1.6,2.2,90,0.05,,,0.07,meteobridge,2013-11-23 20:49:00,
2013-11-23 14:56:00,66.7,63.3,30.16,West,270,0.0,0.0,89,0.00,,,0.07,meteobridge,2013-11-23 20:56:00,
2013-11-23 15:02:00,67.1,63.5,30.16,SW,225,1.6,2.2,88,0.00,,,0.07,meteobridge,2013-11-23 21:02:00,
2013-11-23 15:08:00,66.7,63.1,30.15,West,270,0.0,0.0,88,0.00,,,0.07,meteobridge,2013-11-23 21:08:00,
2013-11-23 15:15:00,66.7,62.8,30.15,West,270,2.2,3.1,87,0.00,,,0.07,meteobridge,2013-11-23 21:15:00,
2013-11-23 15:21:00,67.8,64.2,30.16,West,270,0.0,1.6,88,0.00,,,0.07,meteobridge,2013-11-23 21:21:00,
2013-11-23 15:27:00,66.7,61.7,30.15,West,270,3.8,5.4,84,0.00,,,0.07,meteobridge,2013-11-23 21:27:00,
2013-11-23 15:34:00,66.9,61.0,30.15,South,180,3.8,5.4,81,0.00,,,0.07,meteobridge,2013-11-23 21:34:00,
2013-11-23 15:40:00,67.6,61.2,30.15,NW,315,2.2,2.2,80,0.00,,,0.07,meteobridge,2013-11-23 21:40:00,
2013-11-23 15:46:00,67.6,61.0,30.15,SW,225,2.2,2.2,79,0.00,,,0.07,meteobridge,2013-11-23 21:46:00,
2013-11-23 15:53:00,66.9,59.9,30.16,SW,225,2.2,5.4,78,0.00,,,0.07,meteobridge,2013-11-23 21:53:00,
2013-11-23 15:59:00,66.9,60.3,30.16,South,180,2.2,2.2,79,0.00,,,0.07,meteobridge,2013-11-23 21:59:00,
2013-11-23 16:05:00,66.7,60.1,30.16,East,90,0.0,0.0,79,0.00,,,0.07,meteobridge,2013-11-23 22:05:00,
2013-11-23 16:12:00,67.1,60.4,30.16,West,270,0.0,0.0,79,0.00,,,0.07,meteobridge,2013-11-23 22:12:00,
2013-11-23 16:18:00,66.6,61.0,30.16,North,0,0.0,0.7,82,0.00,,,0.07,meteobridge,2013-11-23 22:18:00,
2013-11-23 16:24:00,66.2,60.8,30.17,North,0,1.6,3.1,83,0.00,,,0.07,meteobridge,2013-11-23 22:24:00,
2013-11-23 16:31:00,65.7,61.0,30.17,SE,135,0.0,4.5,85,0.00,,,0.07,meteobridge,2013-11-23 22:31:00,
2013-11-23 16:37:00,66.0,61.7,30.17,South,180,0.0,0.0,86,0.00,,,0.07,meteobridge,2013-11-23 22:37:00,
2013-11-23 16:43:00,65.1,61.2,30.17,West,270,0.0,0.0,87,0.00,,,0.07,meteobridge,2013-11-23 22:43:00,
2013-11-23 16:50:00,64.9,60.6,30.17,West,270,3.1,3.1,86,0.00,,,0.07,meteobridge,2013-11-23 22:50:00,
2013-11-23 16:56:00,64.9,60.6,30.18,West,270,0.0,1.6,86,0.00,,,0.07,meteobridge,2013-11-23 22:56:00,
2013-11-23 17:02:00,64.8,60.4,30.18,West,270,3.8,4.5,86,0.00,,,0.07,meteobridge,2013-11-23 23:02:00,
2013-11-23 17:09:00,64.4,60.1,30.18,NW,315,2.2,3.8,86,0.00,,,0.07,meteobridge,2013-11-23 23:09:00,
2013-11-23 17:15:00,64.4,60.1,30.18,SW,225,0.7,3.1,86,0.00,,,0.07,meteobridge,2013-11-23 23:15:00,
2013-11-23 17:22:00,63.7,59.7,30.18,SE,135,2.2,4.5,87,0.00,,,0.07,meteobridge,2013-11-23 23:22:00,
2013-11-23 17:26:00,63.5,59.9,30.18,South,180,3.1,3.1,88,0.00,,,0.07,meteobridge,2013-11-23 23:26:00,
2013-11-23 17:32:00,63.9,60.6,30.18,SW,225,3.1,4.5,89,0.00,,,0.07,meteobridge,2013-11-23 23:32:00,
2013-11-23 17:38:00,63.5,60.3,30.18,South,180,2.2,3.1,89,0.00,,,0.07,meteobridge,2013-11-23 23:38:00,
2013-11-23 17:45:00,63.5,60.4,30.18,South,180,0.0,0.0,90,0.00,,,0.07,meteobridge,2013-11-23 23:45:00,
2013-11-23 17:51:00,63.1,60.4,30.18,East,90,0.0,0.0,91,0.00,,,0.07,meteobridge,2013-11-23 23:51:00,
2013-11-23 17:57:00,63.3,60.6,30.18,East,90,0.0,0.0,91,0.00,,,0.07,meteobridge,2013-11-23 23:57:00,
2013-11-23 18:04:00,63.3,60.6,30.19,West,270,0.0,0.0,91,0.00,,,0.07,meteobridge,2013-11-24 00:04:00,
2013-11-23 18:10:00,63.5,61.2,30.19,West,270,0.0,0.0,92,0.00,,,0.07,meteobridge,2013-11-24 00:10:00,
2013-11-23 18:17:00,63.5,60.8,30.19,West,270,0.0,0.0,91,0.00,,,0.07,meteobridge,2013-11-24 00:17:00,
2013-11-23 18:23:00,63.1,60.4,30.19,SW,225,0.0,0.0,91,0.00,,,0.07,meteobridge,2013-11-24 00:23:00,
2013-11-23 18:29:00,62.8,60.4,30.19,West,270,0.0,0.0,92,0.00,,,0.07,meteobridge,2013-11-24 00:29:00,
2013-11-23 18:36:00,62.6,60.6,30.19,SW,225,2.2,3.1,93,0.00,,,0.07,meteobridge,2013-11-24 00:36:00,
2013-11-23 18:42:00,62.8,60.8,30.20,SW,225,0.0,1.6,93,0.00,,,0.07,meteobridge,2013-11-24 00:42:00,
2013-11-23 18:48:00,63.0,61.0,30.20,South,180,0.0,2.2,93,0.00,,,0.07,meteobridge,2013-11-24 00:48:00,
2013-11-23 18:55:00,63.0,61.0,30.20,West,270,3.1,3.1,93,0.00,,,0.07,meteobridge,2013-11-24 00:55:00,
2013-11-23 19:01:00,63.1,61.2,30.20,West,270,0.0,2.2,93,0.00,,,0.07,meteobridge,2013-11-24 01:01:00,
2013-11-23 19:07:00,63.1,60.8,30.21,SW,225,0.0,0.0,92,0.00,,,0.07,meteobridge,2013-11-24 01:07:00,
2013-11-23 19:14:00,63.1,60.8,30.21,North,0,0.0,0.0,92,0.00,,,0.07,meteobridge,2013-11-24 01:14:00,
2013-11-23 19:20:00,63.0,60.6,30.21,South,180,0.0,1.6,92,0.00,,,0.07,meteobridge,2013-11-24 01:20:00,
2013-11-23 19:26:00,62.6,60.3,30.21,West,270,0.0,0.0,92,0.00,,,0.07,meteobridge,2013-11-24 01:26:00,
2013-11-23 19:33:00,62.6,60.3,30.21,North,0,0.0,0.0,92,0.00,,,0.07,meteobridge,2013-11-24 01:33:00,
2013-11-23 19:39:00,62.2,60.4,30.21,South,180,0.0,1.6,94,0.00,,,0.07,meteobridge,2013-11-24 01:39:00,
2013-11-23 19:45:00,62.1,60.3,30.22,East,90,0.7,3.1,94,0.00,,,0.07,meteobridge,2013-11-24 01:45:00,
2013-11-23 19:52:00,61.7,60.3,30.22,South,180,0.7,2.2,95,0.00,,,0.07,meteobridge,2013-11-24 01:52:00,
2013-11-23 19:58:00,61.7,60.3,30.22,South,180,0.0,1.6,95,0.00,,,0.07,meteobridge,2013-11-24 01:58:00,
2013-11-23 20:04:00,61.5,60.4,30.22,West,270,1.6,3.1,96,0.00,,,0.07,meteobridge,2013-11-24 02:04:00,
2013-11-23 20:11:00,61.3,60.3,30.22,West,270,3.1,3.8,96,0.00,,,0.07,meteobridge,2013-11-24 02:11:00,
2013-11-23 20:17:00,61.5,60.1,30.22,West,270,0.0,0.0,95,0.00,,,0.07,meteobridge,2013-11-24 02:17:00,
2013-11-23 20:23:00,61.7,60.3,30.22,West,270,0.0,0.0,95,0.00,,,0.07,meteobridge,2013-11-24 02:23:00,
2013-11-23 20:30:00,61.7,59.7,30.23,SE,135,0.0,0.0,93,0.00,,,0.07,meteobridge,2013-11-24 02:30:00,
2013-11-23 20:36:00,61.5,59.5,30.23,East,90,0.0,0.0,93,0.00,,,0.07,meteobridge,2013-11-24 02:36:00,
2013-11-23 20:45:00,61.3,59.4,30.22,South,180,1.6,2.2,93,0.00,,,0.07,meteobridge,2013-11-24 02:45:00,
2013-11-23 20:51:00,61.3,59.4,30.23,SE,135,3.1,3.1,93,0.00,,,0.07,meteobridge,2013-11-24 02:51:00,
2013-11-23 20:57:00,61.0,59.0,30.23,East,90,1.6,1.6,93,0.00,,,0.07,meteobridge,2013-11-24 02:57:00,
2013-11-23 21:04:00,61.3,59.5,30.23,SW,225,0.0,0.0,94,0.00,,,0.07,meteobridge,2013-11-24 03:04:00,
2013-11-23 21:10:00,61.0,59.2,30.23,South,180,0.0,0.0,94,0.00,,,0.07,meteobridge,2013-11-24 03:10:00,
2013-11-23 21:16:00,61.2,59.4,30.24,SW,225,0.0,0.0,94,0.00,,,0.07,meteobridge,2013-11-24 03:16:00,
2013-11-23 21:23:00,60.8,59.0,30.23,West,270,0.0,2.2,94,0.00,,,0.07,meteobridge,2013-11-24 03:23:00,
2013-11-23 21:29:00,61.0,59.5,30.23,West,270,0.0,0.0,95,0.00,,,0.07,meteobridge,2013-11-24 03:29:00,
2013-11-23 21:35:00,61.0,59.2,30.23,West,270,0.0,0.0,94,0.00,,,0.07,meteobridge,2013-11-24 03:35:00,
2013-11-23 21:42:00,61.0,59.2,30.23,South,180,0.0,0.0,94,0.00,,,0.07,meteobridge,2013-11-24 03:42:00,
2013-11-23 21:48:00,61.0,59.2,30.22,South,180,0.0,0.0,94,0.00,,,0.07,meteobridge,2013-11-24 03:48:00,
2013-11-23 21:54:00,60.6,59.2,30.22,East,90,2.2,2.2,95,0.00,,,0.07,meteobridge,2013-11-24 03:54:00,
2013-11-23 22:01:00,60.4,59.4,30.22,SE,135,2.2,2.2,96,0.00,,,0.07,meteobridge,2013-11-24 04:01:00,
2013-11-23 22:09:00,60.6,59.5,30.22,South,180,3.1,3.1,96,0.00,,,0.07,meteobridge,2013-11-24 04:09:00,
2013-11-23 22:15:00,60.6,59.5,30.22,SE,135,0.0,0.0,96,0.00,,,0.07,meteobridge,2013-11-24 04:15:00,
2013-11-23 22:22:00,60.4,59.4,30.22,South,180,0.7,1.6,96,0.00,,,0.07,meteobridge,2013-11-24 04:22:00,
2013-11-23 22:28:00,60.1,59.0,30.22,SE,135,2.2,2.2,96,0.00,,,0.07,meteobridge,2013-11-24 04:28:00,
2013-11-23 22:34:00,60.1,59.0,30.22,NE,45,2.2,2.2,96,0.00,,,0.07,meteobridge,2013-11-24 04:34:00,
2013-11-23 22:41:00,60.1,59.0,30.22,SE,135,3.1,4.5,96,0.00,,,0.07,meteobridge,2013-11-24 04:41:00,
2013-11-23 22:47:00,59.9,58.5,30.22,South,180,2.2,2.2,95,0.00,,,0.07,meteobridge,2013-11-24 04:47:00,
2013-11-23 22:54:00,60.1,58.6,30.22,SE,135,0.0,2.2,95,0.00,,,0.07,meteobridge,2013-11-24 04:54:00,
2013-11-23 23:00:00,59.9,58.1,30.22,South,180,5.4,5.4,94,0.00,,,0.07,meteobridge,2013-11-24 05:00:00,
2013-11-23 23:02:00,59.9,58.1,30.22,South,180,2.2,4.5,94,0.00,,,0.07,meteobridge,2013-11-24 05:02:00,
2013-11-23 23:04:00,59.7,57.7,30.21,SE,135,2.2,5.4,93,0.00,,,0.07,meteobridge,2013-11-24 05:04:00,
2013-11-23 23:06:00,59.7,57.7,30.22,South,180,6.0,6.0,93,0.00,,,0.07,meteobridge,2013-11-24 05:06:00,
2013-11-23 23:08:00,59.5,57.6,30.21,SE,135,7.6,7.6,93,0.00,,,0.07,meteobridge,2013-11-24 05:08:00,
2013-11-23 23:13:00,59.5,57.2,30.22,SE,135,6.0,6.9,92,0.00,,,0.07,meteobridge,2013-11-24 05:13:00,
2013-11-23 23:15:00,59.5,56.8,30.22,SE,135,4.5,5.4,91,0.00,,,0.07,meteobridge,2013-11-24 05:15:00,
2013-11-23 23:21:00,58.8,56.8,30.22,SE,135,2.2,5.4,93,0.00,,,0.07,meteobridge,2013-11-24 05:21:00,
2013-11-23 23:27:00,58.8,56.8,30.22,SE,135,6.9,6.9,93,0.00,,,0.07,meteobridge,2013-11-24 05:27:00,
2013-11-23 23:34:00,58.6,56.7,30.21,SE,135,3.8,4.5,93,0.00,,,0.07,meteobridge,2013-11-24 05:34:00,
2013-11-23 23:40:00,59.2,56.5,30.21,SE,135,3.1,3.1,91,0.00,,,0.07,meteobridge,2013-11-24 05:40:00,
2013-11-23 23:46:00,59.0,56.3,30.21,SE,135,3.1,3.1,91,0.00,,,0.07,meteobridge,2013-11-24 05:46:00,
2013-11-23 23:53:00,59.0,56.3,30.21,SE,135,3.1,3.1,91,0.00,,,0.07,meteobridge,2013-11-24 05:53:00,
2013-11-23 23:59:00,58.5,56.1,30.21,SE,135,3.1,3.8,92,0.00,,,0.07,meteobridge,2013-11-24 05:59:00,